Time;durP1;ratioP1;P1;durP2;ratioP2;P2;SDS_P1;SDS_P2;PMS_P1;PMS_P2;Temp;Humidity;BMP_temperature;BMP_pressure;BME280_temperature;BME280_humidity;BME280_pressure;Samples;Min_cycle;Max_cycle;Signal;HPM_P1;HPM_P2
2023/10/26 00:04:33;;;;;;;;;;;17.60;63.80;;;;;;10249024;28;93384;-46
2023/10/26 00:09:35;;;;;;;;;;;17.60;63.80;;;;;;10246112;28;92816;-47
2023/10/26 00:14:38;;;;;;;;;;;17.60;63.80;;;;;;10231450;28;93840;-44
2023/10/26 00:19:40;;;;;;;;;;;17.60;63.90;;;;;;10227412;28;92819;-44
2023/10/26 00:24:42;;;;;;;;;;;17.60;63.80;;;;;;10210294;28;93332;-47
2023/10/26 00:29:45;;;;;;;;;;;17.60;63.90;;;;;;10233566;28;92922;-44
2023/10/26 00:34:47;;;;;;;;;;;17.60;63.80;;;;;;10234345;28;95091;-43
2023/10/26 00:39:49;;;;;;;;;;;17.50;63.80;;;;;;10248267;28;94195;-44
2023/10/26 00:44:51;;;;;;;;;;;17.50;63.80;;;;;;10231683;28;93288;-48
2023/10/26 00:49:53;;;;;;;;;;;17.60;63.80;;;;;;10253201;28;94398;-45
2023/10/26 00:54:55;;;;;;;;;;;17.60;63.70;;;;;;10234128;28;94022;-45
2023/10/26 00:59:58;;;;;;;;;;;17.60;63.30;;;;;;10238871;28;96593;-46
2023/10/26 01:05:00;;;;;;;;;;;17.60;62.60;;;;;;10590728;23;93672;-48
2023/10/26 01:10:01;;;;;;;;;;;17.60;62.40;;;;;;10235082;28;94406;-45
2023/10/26 01:15:03;;;;;;;;;;;17.60;61.80;;;;;;10231851;28;93325;-43
2023/10/26 01:20:06;;;;;;;;;;;17.70;61.20;;;;;;10243469;28;95266;-43
2023/10/26 01:25:08;;;;;;;;;;;17.70;60.70;;;;;;10216353;28;95169;-45
2023/10/26 01:30:10;;;;;;;;;;;17.70;60.40;;;;;;10225155;28;96502;-46
2023/10/26 01:35:12;;;;;;;;;;;17.70;60.20;;;;;;10213300;28;92811;-45
2023/10/26 01:40:14;;;;;;;;;;;17.70;59.90;;;;;;10218591;28;92959;-43
2023/10/26 01:45:16;;;;;;;;;;;17.70;59.70;;;;;;10209122;28;94375;-44
2023/10/26 01:50:17;;;;;;;;;;;17.70;59.40;;;;;;10200405;28;92577;-46
2023/10/26 01:55:19;;;;;;;;;;;17.70;59.30;;;;;;10223417;28;93799;-44
2023/10/26 02:00:21;;;;;;;;;;;17.70;59.10;;;;;;10224102;28;94177;-44
2023/10/26 02:05:24;;;;;;;;;;;17.60;58.90;;;;;;10222167;28;94015;-43
2023/10/26 02:10:29;;;;;;;;;;;17.70;58.80;;;;;;10213313;28;94017;-45
2023/10/26 02:15:31;;;;;;;;;;;17.60;58.50;;;;;;10228052;28;96354;-45
2023/10/26 02:20:33;;;;;;;;;;;17.60;58.40;;;;;;10220774;28;96324;-48
2023/10/26 02:25:35;;;;;;;;;;;17.60;58.20;;;;;;10205330;28;94255;-49
2023/10/26 02:30:36;;;;;;;;;;;17.60;58.30;;;;;;10223796;28;95627;-47
2023/10/26 02:35:39;;;;;;;;;;;17.60;58.50;;;;;;10219652;28;93711;-46
2023/10/26 02:40:41;;;;;;;;;;;17.60;58.80;;;;;;10198898;28;93910;-46
2023/10/26 02:45:42;;;;;;;;;;;17.50;59.10;;;;;;10231829;28;93884;-46
2023/10/26 02:50:44;;;;;;;;;;;17.50;59.20;;;;;;10216640;28;93382;-45
2023/10/26 02:55:46;;;;;;;;;;;17.50;59.10;;;;;;10221453;28;93320;-46
2023/10/26 03:00:48;;;;;;;;;;;17.50;59.00;;;;;;10209938;28;93962;-46
2023/10/26 03:05:50;;;;;;;;;;;17.50;58.60;;;;;;10211330;28;95063;-48
2023/10/26 03:10:52;;;;;;;;;;;17.50;58.50;;;;;;10219380;28;97016;-45
2023/10/26 03:15:54;;;;;;;;;;;17.50;58.20;;;;;;10206505;28;94771;-45
2023/10/26 03:20:57;;;;;;;;;;;17.50;58.00;;;;;;10207665;28;93136;-47
2023/10/26 03:26:00;;;;;;;;;;;17.50;57.90;;;;;;10226748;28;92897;-47
2023/10/26 03:31:02;;;;;;;;;;;17.50;58.30;;;;;;10209857;28;93713;-45
2023/10/26 03:36:04;;;;;;;;;;;17.50;58.60;;;;;;10210938;28;93661;-50
2023/10/26 03:41:06;;;;;;;;;;;17.40;58.90;;;;;;10222243;28;93915;-50
2023/10/26 03:46:08;;;;;;;;;;;17.40;58.90;;;;;;10195775;28;93078;-48
2023/10/26 03:51:09;;;;;;;;;;;17.40;58.70;;;;;;10221188;28;93177;-46
2023/10/26 03:56:11;;;;;;;;;;;17.40;58.50;;;;;;10229044;28;96100;-45
2023/10/26 04:01:14;;;;;;;;;;;17.40;58.40;;;;;;10209615;28;96214;-46
2023/10/26 04:06:15;;;;;;;;;;;17.40;58.10;;;;;;10212930;28;94094;-48
2023/10/26 04:11:18;;;;;;;;;;;17.40;58.10;;;;;;10215609;28;93959;-48
2023/10/26 04:16:22;;;;;;;;;;;17.40;57.70;;;;;;10233353;28;95548;-48
2023/10/26 04:21:24;;;;;;;;;;;17.40;57.70;;;;;;10217163;28;93724;-48
2023/10/26 04:26:26;;;;;;;;;;;17.40;58.10;;;;;;10236350;28;94430;-49
2023/10/26 04:31:28;;;;;;;;;;;17.40;58.30;;;;;;10210873;28;93811;-45
2023/10/26 04:36:30;;;;;;;;;;;17.30;58.80;;;;;;10233911;28;92695;-44
2023/10/26 04:41:33;;;;;;;;;;;17.30;58.90;;;;;;10231774;28;93479;-46
2023/10/26 04:46:35;;;;;;;;;;;17.30;58.70;;;;;;10233270;28;95281;-47
2023/10/26 04:51:37;;;;;;;;;;;17.40;58.30;;;;;;10236581;28;96229;-47
2023/10/26 04:56:38;;;;;;;;;;;17.40;58.10;;;;;;10213869;28;93937;-46
2023/10/26 05:01:42;;;;;;;;;;;17.40;57.90;;;;;;10215074;28;93561;-45
2023/10/26 05:06:45;;;;;;;;;;;17.40;57.50;;;;;;10202065;28;93958;-44
2023/10/26 05:11:47;;;;;;;;;;;17.40;57.40;;;;;;10220590;28;93899;-47
2023/10/26 05:16:51;;;;;;;;;;;17.40;57.50;;;;;;10196557;28;92772;-44
2023/10/26 05:21:52;;;;;;;;;;;17.40;57.90;;;;;;10209120;28;92784;-47
2023/10/26 05:26:54;;;;;;;;;;;17.40;58.20;;;;;;10208398;28;92783;-47
2023/10/26 05:31:57;;;;;;;;;;;17.40;58.60;;;;;;10210247;28;93827;-48
2023/10/26 05:36:59;;;;;;;;;;;17.40;58.60;;;;;;10218956;28;96063;-44
2023/10/26 05:42:04;;;;;;;;;;;17.40;59.90;;;;;;10206569;28;96295;-44
2023/10/26 05:47:05;;;;;;;;;;;17.50;60.20;;;;;;10220235;28;92954;-44
2023/10/26 05:52:07;;;;;;;;;;;17.50;61.00;;;;;;10237310;28;93714;-44
2023/10/26 05:57:09;;;;;;;;;;;17.50;61.40;;;;;;10232657;28;94624;-44
2023/10/26 06:02:11;;;;;;;;;;;17.50;61.90;;;;;;10220219;28;94062;-44
2023/10/26 06:07:13;;;;;;;;;;;17.50;62.30;;;;;;10224730;28;95508;-44
2023/10/26 06:12:15;;;;;;;;;;;17.60;62.20;;;;;;10221743;28;93848;-45
2023/10/26 06:17:16;;;;;;;;;;;17.50;62.00;;;;;;10228431;28;93515;-47
2023/10/26 06:22:18;;;;;;;;;;;17.50;62.30;;;;;;10210309;28;93887;-48
2023/10/26 06:27:20;;;;;;;;;;;17.50;62.60;;;;;;10224232;28;97752;-49
2023/10/26 06:32:22;;;;;;;;;;;17.50;62.90;;;;;;10223314;28;95358;-47
2023/10/26 06:37:24;;;;;;;;;;;17.50;63.00;;;;;;10226810;28;93116;-47
2023/10/26 06:42:26;;;;;;;;;;;17.50;63.10;;;;;;10215604;28;94076;-45
2023/10/26 06:47:28;;;;;;;;;;;17.40;62.90;;;;;;10226683;28;94003;-46
2023/10/26 06:52:30;;;;;;;;;;;17.40;62.00;;;;;;10216218;28;94128;-46
2023/10/26 06:57:35;;;;;;;;;;;17.40;62.60;;;;;;10235568;28;93962;-45
2023/10/26 07:02:37;;;;;;;;;;;17.40;61.30;;;;;;10219023;28;93853;-47
2023/10/26 07:07:39;;;;;;;;;;;17.40;60.80;;;;;;10220261;28;93164;-48
2023/10/26 07:12:42;;;;;;;;;;;17.40;60.50;;;;;;10217225;28;94283;-46
2023/10/26 07:17:43;;;;;;;;;;;17.40;60.20;;;;;;10203056;28;95367;-45
2023/10/26 07:22:45;;;;;;;;;;;17.40;59.90;;;;;;10207149;28;96257;-47
2023/10/26 07:27:47;;;;;;;;;;;17.40;60.00;;;;;;10227228;28;93375;-45
2023/10/26 07:32:49;;;;;;;;;;;17.30;61.90;;;;;;10217560;28;93911;-49
2023/10/26 07:37:52;;;;;;;;;;;17.30;60.90;;;;;;10211768;28;95365;-46
2023/10/26 07:43:14;;;;;;;;;;;17.30;60.40;;;;;;10216997;28;94082;-46
2023/10/26 07:48:16;;;;;;;;;;;17.30;60.20;;;;;;10240765;28;93856;-46
2023/10/26 07:53:18;;;;;;;;;;;17.30;59.80;;;;;;10219041;28;92831;-44
2023/10/26 07:58:20;;;;;;;;;;;17.30;60.60;;;;;;10222864;28;93411;-44
2023/10/26 08:03:25;;;;;;;;;;;17.30;59.40;;;;;;10216164;28;93200;-44
2023/10/26 08:08:27;;;;;;;;;;;17.30;59.10;;;;;;10225887;28;95492;-44
2023/10/26 08:13:29;;;;;;;;;;;17.30;59.00;;;;;;10212606;28;96186;-45
2023/10/26 08:18:31;;;;;;;;;;;17.30;58.80;;;;;;10228723;28;93549;-49
2023/10/26 08:23:33;;;;;;;;;;;17.30;59.20;;;;;;10221935;28;94048;-48
2023/10/26 08:28:35;;;;;;;;;;;17.30;59.90;;;;;;10227189;28;93890;-47
2023/10/26 08:33:37;;;;;;;;;;;17.20;60.00;;;;;;10224513;28;93849;-46
2023/10/26 08:38:39;;;;;;;;;;;17.30;59.60;;;;;;10222751;28;94288;-46
2023/10/26 08:43:42;;;;;;;;;;;17.20;59.30;;;;;;10233900;28;93788;-44
2023/10/26 08:48:46;;;;;;;;;;;17.30;59.00;;;;;;10218097;28;94412;-46
2023/10/26 08:53:49;;;;;;;;;;;17.30;58.90;;;;;;10200025;28;93780;-44
2023/10/26 08:58:54;;;;;;;;;;;17.30;58.70;;;;;;10222951;28;95101;-45
2023/10/26 09:03:56;;;;;;;;;;;17.30;58.50;;;;;;10224108;28;94879;-47
2023/10/26 09:09:00;;;;;;;;;;;17.30;58.30;;;;;;10220790;28;92911;-44
2023/10/26 09:14:12;;;;;;;;;;;17.30;58.10;;;;;;10199718;28;92984;-44
2023/10/26 09:19:17;;;;;;;;;;;17.30;58.70;;;;;;10206469;28;93749;-46
2023/10/26 09:24:21;;;;;;;;;;;17.30;59.20;;;;;;10217907;28;93886;-44
2023/10/26 09:29:35;;;;;;;;;;;17.30;59.20;;;;;;10225602;28;94057;-44
2023/10/26 09:34:40;;;;;;;;;;;17.30;59.00;;;;;;10220501;28;92704;-44
2023/10/26 09:39:42;;;;;;;;;;;17.30;58.70;;;;;;10197692;28;93381;-44
2023/10/26 09:44:43;;;;;;;;;;;17.40;58.50;;;;;;10234703;28;92937;-47
2023/10/26 09:49:46;;;;;;;;;;;17.40;58.30;;;;;;10211854;28;95988;-44
2023/10/26 09:54:48;;;;;;;;;;;17.40;58.10;;;;;;10223459;28;94987;-44
2023/10/26 09:59:53;;;;;;;;;;;17.40;57.90;;;;;;10218780;28;93771;-45
2023/10/26 10:04:55;;;;;;;;;;;17.40;57.90;;;;;;10212905;28;94215;-49
2023/10/26 10:10:02;;;;;;;;;;;17.40;58.00;;;;;;10213458;28;94243;-45
2023/10/26 10:15:08;;;;;;;;;;;17.50;58.40;;;;;;10233357;28;102697;-46
2023/10/26 10:20:31;;;;;;;;;;;17.50;58.90;;;;;;10238125;28;95632;-47
2023/10/26 10:25:53;;;;;;;;;;;17.50;59.30;;;;;;10223489;28;93723;-45
2023/10/26 10:31:00;;;;;;;;;;;17.50;60.90;;;;;;10216351;28;93018;-46
2023/10/26 10:36:03;;;;;;;;;;;17.60;61.60;;;;;;10211848;28;93652;-48
2023/10/26 10:41:06;;;;;;;;;;;17.70;61.90;;;;;;10209478;28;95440;-47
2023/10/26 10:46:13;;;;;;;;;;;17.90;61.90;;;;;;10233340;28;95188;-46
2023/10/26 10:51:15;;;;;;;;;;;18.00;61.70;;;;;;10229108;28;93495;-46
2023/10/26 10:56:17;;;;;;;;;;;18.20;61.60;;;;;;10225458;28;96018;-45
2023/10/26 11:01:20;;;;;;;;;;;18.40;61.40;;;;;;10213728;28;93802;-48
2023/10/26 11:06:22;;;;;;;;;;;18.50;61.40;;;;;;10197431;28;94466;-49
2023/10/26 11:11:27;;;;;;;;;;;18.60;61.20;;;;;;10217509;28;93108;-50
2023/10/26 11:16:29;;;;;;;;;;;18.60;61.10;;;;;;10236593;28;92801;-45
2023/10/26 11:21:31;;;;;;;;;;;18.60;61.10;;;;;;10226831;28;93031;-55
2023/10/26 11:26:32;;;;;;;;;;;18.50;61.20;;;;;;10227912;28;93973;-47
2023/10/26 11:31:44;;;;;;;;;;;18.40;61.30;;;;;;10212043;28;95951;-55
2023/10/26 11:36:45;;;;;;;;;;;18.40;61.40;;;;;;10223842;28;97191;-58
2023/10/26 11:41:54;;;;;;;;;;;18.40;61.50;;;;;;10212202;28;92629;-49
2023/10/26 11:46:57;;;;;;;;;;;18.30;61.50;;;;;;10210331;28;92780;-47
2023/10/26 11:51:59;;;;;;;;;;;18.30;61.60;;;;;;10207589;28;93636;-46
2023/10/26 11:57:02;;;;;;;;;;;18.20;61.70;;;;;;10214244;28;92901;-49
2023/10/26 12:02:05;;;;;;;;;;;18.20;61.80;;;;;;10226922;28;93799;-51
2023/10/26 12:07:07;;;;;;;;;;;18.20;61.90;;;;;;10208646;28;93793;-47
2023/10/26 12:12:09;;;;;;;;;;;18.10;62.00;;;;;;10219109;28;93356;-53
2023/10/26 12:17:11;;;;;;;;;;;18.10;62.10;;;;;;10232768;28;92970;-45
2023/10/26 12:22:13;;;;;;;;;;;18.10;62.20;;;;;;10231361;28;95240;-45
2023/10/26 12:27:16;;;;;;;;;;;18.10;63.60;;;;;;10230836;28;96667;-45
2023/10/26 12:32:19;;;;;;;;;;;18.20;63.40;;;;;;10202043;28;92899;-47
2023/10/26 12:37:21;;;;;;;;;;;18.20;63.20;;;;;;10228022;28;93558;-47
2023/10/26 12:42:24;;;;;;;;;;;18.20;63.00;;;;;;10236876;28;92874;-46
2023/10/26 12:47:26;;;;;;;;;;;18.20;63.90;;;;;;10226623;28;93749;-45
2023/10/26 12:52:28;;;;;;;;;;;18.10;62.90;;;;;;10236461;28;93926;-48
2023/10/26 12:57:30;;;;;;;;;;;18.10;62.90;;;;;;10220260;28;92772;-47
2023/10/26 13:02:32;;;;;;;;;;;18.10;62.80;;;;;;10232527;28;93505;-45
2023/10/26 13:07:34;;;;;;;;;;;18.20;63.50;;;;;;10228473;28;93779;-48
2023/10/26 13:12:36;;;;;;;;;;;18.30;63.30;;;;;;10224045;28;95777;-48
2023/10/26 13:17:38;;;;;;;;;;;18.30;63.20;;;;;;10228749;28;96369;-48
2023/10/26 13:22:40;;;;;;;;;;;18.20;62.90;;;;;;10222428;28;93505;-47
2023/10/26 13:27:42;;;;;;;;;;;18.20;62.70;;;;;;10236309;28;93956;-46
2023/10/26 13:32:44;;;;;;;;;;;18.20;62.60;;;;;;10226982;28;93760;-48
2023/10/26 13:37:46;;;;;;;;;;;18.30;62.70;;;;;;10225310;28;93825;-47
2023/10/26 13:42:50;;;;;;;;;;;18.30;62.60;;;;;;10206012;28;93743;-49
2023/10/26 13:47:52;;;;;;;;;;;18.30;62.50;;;;;;10191934;28;94175;-46
2023/10/26 13:52:54;;;;;;;;;;;18.30;62.50;;;;;;10217788;28;96337;-50
2023/10/26 13:57:55;;;;;;;;;;;18.30;62.50;;;;;;10219053;28;93790;-45
2023/10/26 14:02:57;;;;;;;;;;;18.30;62.50;;;;;;10217311;28;96542;-47
2023/10/26 14:07:59;;;;;;;;;;;18.30;62.50;;;;;;10224471;28;95099;-50
2023/10/26 14:13:01;;;;;;;;;;;18.20;62.20;;;;;;10212438;28;96585;-50
2023/10/26 14:18:03;;;;;;;;;;;18.20;62.40;;;;;;10216831;28;93922;-46
2023/10/26 14:23:05;;;;;;;;;;;18.20;62.50;;;;;;10230184;28;94647;-45
2023/10/26 14:28:07;;;;;;;;;;;18.20;62.50;;;;;;10221406;28;92943;-43
2023/10/26 14:33:09;;;;;;;;;;;18.10;62.50;;;;;;10235389;28;93115;-42
2023/10/26 14:38:12;;;;;;;;;;;18.10;62.60;;;;;;10223533;28;94449;-43
2023/10/26 14:43:14;;;;;;;;;;;18.10;62.80;;;;;;10215688;28;93394;-42
2023/10/26 14:48:15;;;;;;;;;;;18.10;63.00;;;;;;10227094;28;92865;-44
2023/10/26 14:53:17;;;;;;;;;;;18.00;63.10;;;;;;10215756;28;95451;-47
2023/10/26 14:58:19;;;;;;;;;;;18.10;63.40;;;;;;10220804;28;95080;-44
2023/10/26 15:03:23;;;;;;;;;;;18.10;63.40;;;;;;10215983;28;93578;-44
2023/10/26 15:08:25;;;;;;;;;;;18.10;63.40;;;;;;10227547;28;92903;-43
2023/10/26 15:13:27;;;;;;;;;;;18.10;63.40;;;;;;10240440;28;93454;-44
2023/10/26 15:18:29;;;;;;;;;;;18.10;63.60;;;;;;10227842;28;94060;-45
2023/10/26 15:23:30;;;;;;;;;;;18.10;63.80;;;;;;10230084;28;93560;-42
2023/10/26 15:28:32;;;;;;;;;;;18.10;63.60;;;;;;10221612;28;93486;-45
2023/10/26 15:33:34;;;;;;;;;;;18.10;63.90;;;;;;10212004;28;94306;-42
2023/10/26 15:38:40;;;;;;;;;;;18.10;64.40;;;;;;10221766;28;93799;-47
2023/10/26 15:43:42;;;;;;;;;;;18.10;65.30;;;;;;10202150;28;95132;-43
2023/10/26 15:48:44;;;;;;;;;;;18.20;65.70;;;;;;10205526;28;96229;-44
2023/10/26 15:54:07;;;;;;;;;;;18.20;66.60;;;;;;10217464;28;95220;-43
2023/10/26 15:59:09;;;;;;;;;;;18.20;65.70;;;;;;10235287;28;92741;-44
2023/10/26 16:04:11;;;;;;;;;;;18.20;65.80;;;;;;10230177;28;93165;-44
2023/10/26 16:09:13;;;;;;;;;;;18.30;67.20;;;;;;10216362;28;93768;-42
2023/10/26 16:14:15;;;;;;;;;;;18.30;66.40;;;;;;10223145;28;96224;-46
2023/10/26 16:19:17;;;;;;;;;;;18.40;66.60;;;;;;10240736;28;92583;-44
2023/10/26 16:24:19;;;;;;;;;;;18.40;67.20;;;;;;10223000;28;93454;-48
2023/10/26 16:29:21;;;;;;;;;;;18.50;67.10;;;;;;10230350;28;93349;-44
2023/10/26 16:34:23;;;;;;;;;;;18.50;66.80;;;;;;10224500;28;95339;-44
2023/10/26 16:39:25;;;;;;;;;;;18.50;66.60;;;;;;10228738;28;96539;-45
2023/10/26 16:44:26;;;;;;;;;;;18.40;66.60;;;;;;10221655;28;94180;-47
2023/10/26 16:49:28;;;;;;;;;;;18.40;66.70;;;;;;10220347;28;93804;-46
2023/10/26 16:54:30;;;;;;;;;;;18.40;66.80;;;;;;10217696;28;92678;-43
2023/10/26 16:59:32;;;;;;;;;;;18.40;66.90;;;;;;10218018;28;94322;-43
2023/10/26 17:04:35;;;;;;;;;;;18.30;66.90;;;;;;10228250;28;92801;-44
2023/10/26 17:09:37;;;;;;;;;;;18.30;67.00;;;;;;10236591;28;92722;-47
2023/10/26 17:14:38;;;;;;;;;;;18.30;67.00;;;;;;10226168;28;94245;-44
2023/10/26 17:19:40;;;;;;;;;;;18.30;67.10;;;;;;10239994;28;93651;-44
2023/10/26 17:24:43;;;;;;;;;;;18.30;67.20;;;;;;10218684;28;95262;-43
2023/10/26 17:29:45;;;;;;;;;;;18.30;67.30;;;;;;10220803;28;96502;-45
2023/10/26 17:34:48;;;;;;;;;;;18.20;67.40;;;;;;10205051;28;93810;-43
2023/10/26 17:39:50;;;;;;;;;;;18.20;67.50;;;;;;10228540;28;93202;-43
2023/10/26 17:44:52;;;;;;;;;;;18.20;67.50;;;;;;10226200;28;93832;-48
2023/10/26 17:49:54;;;;;;;;;;;18.20;67.40;;;;;;10217479;28;94672;-43
2023/10/26 17:54:56;;;;;;;;;;;18.10;67.50;;;;;;10226715;28;94383;-45
2023/10/26 17:59:57;;;;;;;;;;;18.10;67.50;;;;;;10218595;28;94142;-46
2023/10/26 18:04:59;;;;;;;;;;;18.10;67.50;;;;;;10211490;28;93091;-44
2023/10/26 18:10:03;;;;;;;;;;;18.10;67.60;;;;;;10195234;28;93616;-48
2023/10/26 18:15:05;;;;;;;;;;;18.10;67.50;;;;;;10193232;28;95101;-51
2023/10/26 18:20:08;;;;;;;;;;;18.10;67.50;;;;;;10220308;28;95211;-49
2023/10/26 18:25:10;;;;;;;;;;;18.20;69.10;;;;;;10226525;28;93966;-46
2023/10/26 18:30:13;;;;;;;;;;;18.20;68.50;;;;;;10240929;28;94469;-48
2023/10/26 18:35:15;;;;;;;;;;;18.30;68.20;;;;;;10223868;28;93794;-49
2023/10/26 18:40:17;;;;;;;;;;;18.30;67.90;;;;;;10219781;28;95796;-49
2023/10/26 18:45:19;;;;;;;;;;;18.20;67.70;;;;;;10240959;28;93045;-45
2023/10/26 18:50:21;;;;;;;;;;;18.20;67.60;;;;;;10240139;28;94197;-45
2023/10/26 18:55:22;;;;;;;;;;;18.20;67.70;;;;;;10221633;28;93415;-46
2023/10/26 19:00:24;;;;;;;;;;;18.20;67.70;;;;;;10231008;28;93805;-46
2023/10/26 19:05:26;;;;;;;;;;;18.20;67.70;;;;;;10190548;28;95333;-45
2023/10/26 19:10:28;;;;;;;;;;;18.10;67.70;;;;;;10227350;28;96295;-47
2023/10/26 19:15:30;;;;;;;;;;;18.10;67.70;;;;;;10221002;28;93814;-46
2023/10/26 19:20:33;;;;;;;;;;;18.10;67.70;;;;;;10230439;28;93351;-46
2023/10/26 19:25:35;;;;;;;;;;;18.10;67.70;;;;;;10203065;28;94497;-48
2023/10/26 19:30:36;;;;;;;;;;;18.10;67.50;;;;;;10189586;28;94174;-47
2023/10/26 19:35:38;;;;;;;;;;;18.10;67.60;;;;;;10214191;28;92826;-48
2023/10/26 19:40:41;;;;;;;;;;;18.10;67.50;;;;;;10227712;28;94639;-48
2023/10/26 19:45:43;;;;;;;;;;;18.10;67.30;;;;;;10237147;28;93264;-44
2023/10/26 19:50:45;;;;;;;;;;;18.00;67.30;;;;;;10239797;28;92993;-48
2023/10/26 19:55:48;;;;;;;;;;;18.00;67.40;;;;;;10226553;28;95588;-48
2023/10/26 20:00:50;;;;;;;;;;;18.10;67.60;;;;;;10241660;28;96234;-45
2023/10/26 20:05:52;;;;;;;;;;;18.00;68.60;;;;;;10222527;28;93061;-46
2023/10/26 20:10:54;;;;;;;;;;;18.00;67.60;;;;;;10232377;28;94132;-54
2023/10/26 20:15:56;;;;;;;;;;;18.00;67.60;;;;;;10235107;28;94781;-46
2023/10/26 20:20:57;;;;;;;;;;;18.00;67.60;;;;;;10231431;28;93976;-50
2023/10/26 20:25:59;;;;;;;;;;;18.00;67.60;;;;;;10226265;28;93776;-44
2023/10/26 20:31:01;;;;;;;;;;;18.00;67.60;;;;;;10231424;28;93895;-49
2023/10/26 20:36:04;;;;;;;;;;;18.00;67.70;;;;;;10230053;28;93201;-48
2023/10/26 20:41:06;;;;;;;;;;;18.00;67.80;;;;;;10236028;28;93836;-44
2023/10/26 20:46:08;;;;;;;;;;;18.00;67.70;;;;;;10220116;28;97597;-45
2023/10/26 20:51:11;;;;;;;;;;;18.00;67.80;;;;;;10233411;28;95329;-45
2023/10/26 20:56:13;;;;;;;;;;;18.00;67.80;;;;;;10244761;28;94144;-46
2023/10/26 21:01:15;;;;;;;;;;;18.00;67.60;;;;;;10217360;28;93825;-44
2023/10/26 21:06:17;;;;;;;;;;;18.00;67.60;;;;;;10216957;28;93284;-45
2023/10/26 21:11:19;;;;;;;;;;;17.90;67.50;;;;;;10214949;28;94978;-45
2023/10/26 21:16:21;;;;;;;;;;;17.90;67.50;;;;;;10223788;28;92933;-48
2023/10/26 21:21:22;;;;;;;;;;;17.80;67.40;;;;;;10218990;28;94049;-44
2023/10/26 21:26:24;;;;;;;;;;;17.80;68.40;;;;;;10221717;28;95625;-44
2023/10/26 21:31:26;;;;;;;;;;;17.80;67.40;;;;;;10221648;28;94112;-47
2023/10/26 21:36:29;;;;;;;;;;;17.80;67.40;;;;;;10219145;28;95982;-44
2023/10/26 21:41:32;;;;;;;;;;;17.80;67.50;;;;;;10240672;28;96277;-44
2023/10/26 21:46:34;;;;;;;;;;;17.80;67.40;;;;;;10229439;28;93894;-44
2023/10/26 21:51:36;;;;;;;;;;;17.80;67.40;;;;;;10218504;28;92767;-44
2023/10/26 21:56:37;;;;;;;;;;;17.70;67.50;;;;;;10229310;28;93861;-46
2023/10/26 22:01:39;;;;;;;;;;;17.70;67.40;;;;;;10224898;28;95257;-45
2023/10/26 22:06:42;;;;;;;;;;;17.70;67.40;;;;;;10229317;28;94147;-45
2023/10/26 22:11:44;;;;;;;;;;;17.70;67.40;;;;;;10215803;28;93864;-46
2023/10/26 22:16:46;;;;;;;;;;;17.70;67.40;;;;;;10243372;28;93132;-46
2023/10/26 22:21:47;;;;;;;;;;;17.70;67.30;;;;;;10235253;28;94118;-48
2023/10/26 22:26:51;;;;;;;;;;;17.60;67.30;;;;;;10226798;28;95015;-45
2023/10/26 22:31:53;;;;;;;;;;;17.70;67.30;;;;;;10236675;28;96747;-48
2023/10/26 22:36:55;;;;;;;;;;;17.60;67.30;;;;;;10221195;28;94199;-47
2023/10/26 22:41:57;;;;;;;;;;;17.60;67.30;;;;;;10239715;28;94038;-50
2023/10/26 22:46:59;;;;;;;;;;;17.60;67.20;;;;;;10241562;28;94598;-46
2023/10/26 22:52:01;;;;;;;;;;;17.60;67.10;;;;;;10235979;28;93753;-47
2023/10/26 22:57:02;;;;;;;;;;;17.60;67.20;;;;;;10217963;28;93778;-48
2023/10/26 23:02:04;;;;;;;;;;;17.50;67.10;;;;;;10217894;28;93132;-46
2023/10/26 23:07:06;;;;;;;;;;;17.60;67.10;;;;;;10238248;28;93201;-46
2023/10/26 23:12:08;;;;;;;;;;;17.50;67.00;;;;;;10229242;28;92892;-48
2023/10/26 23:17:11;;;;;;;;;;;17.50;67.00;;;;;;10224277;28;95514;-44
2023/10/26 23:22:13;;;;;;;;;;;17.50;67.00;;;;;;10234352;28;95212;-44
2023/10/26 23:27:15;;;;;;;;;;;17.50;66.90;;;;;;10221240;28;94703;-43
2023/10/26 23:32:17;;;;;;;;;;;17.50;67.00;;;;;;10236945;28;93722;-46
2023/10/26 23:37:19;;;;;;;;;;;17.50;66.80;;;;;;10235914;28;92767;-45
2023/10/26 23:42:21;;;;;;;;;;;17.50;66.80;;;;;;10236716;28;92791;-44
2023/10/26 23:47:23;;;;;;;;;;;17.50;66.80;;;;;;10224839;28;93887;-44
2023/10/26 23:52:24;;;;;;;;;;;17.50;66.70;;;;;;10237497;28;95057;-43
2023/10/26 23:57:26;;;;;;;;;;;17.50;66.60;;;;;;10236489;28;93399;-45
